Time;durP1;ratioP1;P1;durP2;ratioP2;P2;SDS_P1;SDS_P2;PMS_P1;PMS_P2;Temp;Humidity;BMP_temperature;BMP_pressure;BME280_temperature;BME280_humidity;BME280_pressure;Samples;Min_cycle;Max_cycle;Signal;HPM_P1;HPM_P2
2022/04/30 00:00:04;;;;;;;16.20;14.52;;;;;;;13.93;55.40;95320.59;4953105;28;20212;-62
2022/04/30 00:02:30;;;;;;;15.20;13.23;;;;;;;13.91;55.70;95328.66;4961689;28;20264;-61
2022/04/30 00:04:55;;;;;;;15.85;14.25;;;;;;;13.99;55.70;95323.38;4953423;28;20259;-61
2022/04/30 00:07:21;;;;;;;14.55;13.25;;;;;;;13.86;55.75;95310.66;4950021;28;20235;-61
2022/04/30 00:09:48;;;;;;;15.20;13.70;;;;;;;13.99;55.63;95304.88;4953061;28;20228;-61
2022/04/30 00:12:15;;;;;;;14.73;13.32;;;;;;;13.85;55.90;95309.00;4949697;28;20204;-59
2022/04/30 00:14:41;;;;;;;14.55;13.20;;;;;;;13.78;55.85;95307.19;4944428;28;20224;-61
2022/04/30 00:17:07;;;;;;;15.35;13.93;;;;;;;13.79;55.91;95311.47;4945447;28;20240;-61
2022/04/30 00:19:33;;;;;;;14.48;13.07;;;;;;;13.82;55.86;95311.13;4951224;28;20253;-61
2022/04/30 00:21:59;;;;;;;14.98;13.40;;;;;;;13.81;56.07;95307.66;4953422;28;20231;-60
2022/04/30 00:24:26;;;;;;;15.77;14.27;;;;;;;13.72;56.39;95305.19;4971629;28;20271;-62
2022/04/30 00:26:53;;;;;;;14.40;13.10;;;;;;;13.71;56.39;95309.63;4969176;28;20208;-62
2022/04/30 00:29:18;;;;;;;14.68;13.15;;;;;;;13.71;56.70;95312.28;4972002;28;20468;-61
2022/04/30 00:31:44;;;;;;;14.68;13.27;;;;;;;13.73;56.94;95305.03;4961808;28;20230;-61
2022/04/30 00:34:10;;;;;;;15.55;13.93;;;;;;;13.85;55.84;95314.28;4940349;28;20248;-61
2022/04/30 00:36:36;;;;;;;14.07;12.60;;;;;;;13.82;55.96;95308.50;4949783;28;20276;-61
2022/04/30 00:39:02;;;;;;;14.75;13.25;;;;;;;13.75;56.35;95312.78;4944847;28;20205;-62
2022/04/30 00:41:31;;;;;;;16.50;14.90;;;;;;;13.72;56.58;95315.78;4935961;28;20283;-62
2022/04/30 00:43:56;;;;;;;14.75;13.32;;;;;;;13.68;56.59;95316.09;4945618;28;20240;-62
2022/04/30 00:46:23;;;;;;;14.70;13.35;;;;;;;13.62;56.76;95308.81;4953825;28;20227;-61
2022/04/30 00:48:50;;;;;;;14.15;12.85;;;;;;;13.34;57.17;95310.06;4946495;28;20511;-61
2022/04/30 00:51:18;;;;;;;15.00;13.50;;;;;;;13.34;57.11;95310.91;4944315;28;20201;-61
2022/04/30 00:53:48;;;;;;;14.27;12.77;;;;;;;13.45;56.75;95307.16;4953466;28;20237;-61
2022/04/30 00:56:17;;;;;;;13.43;12.13;;;;;;;13.23;56.75;95311.16;4936371;28;20309;-62
2022/04/30 00:58:47;;;;;;;12.65;11.45;;;;;;;13.08;57.00;95308.31;4965004;28;20315;-61
2022/04/30 01:01:14;;;;;;;11.55;10.55;;;;;;;13.11;56.74;95299.25;4946161;28;20228;-61
2022/04/30 01:03:40;;;;;;;11.52;10.43;;;;;;;12.84;57.39;95293.22;4939009;28;20244;-62
2022/04/30 01:06:06;;;;;;;11.35;10.40;;;;;;;12.84;57.59;95302.97;4956959;28;20209;-61
2022/04/30 01:08:32;;;;;;;12.13;10.93;;;;;;;12.74;58.24;95300.44;4943137;28;20231;-62
2022/04/30 01:11:02;;;;;;;12.75;11.57;;;;;;;13.07;57.39;95304.03;4951210;28;20224;-61
2022/04/30 01:13:29;;;;;;;13.35;12.10;;;;;;;13.21;57.01;95306.06;4948640;28;20225;-61
2022/04/30 01:15:58;;;;;;;12.82;11.63;;;;;;;13.22;57.02;95302.41;4962968;28;20296;-61
2022/04/30 01:18:28;;;;;;;12.60;11.30;;;;;;;13.25;56.90;95302.09;4958198;28;20300;-61
2022/04/30 01:20:58;;;;;;;13.30;11.93;;;;;;;13.28;57.07;95300.16;4934466;28;20209;-61
2022/04/30 01:23:26;;;;;;;12.55;11.38;;;;;;;13.29;56.54;95299.19;4948392;28;20236;-62
2022/04/30 01:25:53;;;;;;;12.73;11.63;;;;;;;13.32;56.03;95297.03;4955156;28;20315;-62
2022/04/30 01:28:19;;;;;;;13.03;11.73;;;;;;;13.19;56.55;95297.47;4955291;28;20217;-61
2022/04/30 01:30:45;;;;;;;12.18;10.88;;;;;;;13.16;56.59;95300.44;4944416;28;20229;-62
2022/04/30 01:38:40;;;;;;;12.77;11.60;;;;;;;12.72;58.79;95294.47;4961672;28;20267;-62
2022/04/30 01:41:06;;;;;;;12.70;11.50;;;;;;;12.92;58.25;95295.06;4962686;28;20287;-62
2022/04/30 01:43:33;;;;;;;12.30;11.20;;;;;;;12.95;57.71;95287.66;4938063;28;20233;-62
2022/04/30 01:46:00;;;;;;;12.90;11.57;;;;;;;12.93;57.76;95289.63;4940413;28;20229;-62
2022/04/30 01:48:26;;;;;;;12.13;10.93;;;;;;;12.92;57.50;95295.06;4951370;28;20224;-62
2022/04/30 01:50:55;;;;;;;11.73;10.57;;;;;;;12.80;57.96;95292.72;4945968;28;20212;-61
2022/04/30 01:53:20;;;;;;;12.13;11.02;;;;;;;12.85;57.70;95294.88;4946590;28;20276;-61
2022/04/30 01:55:46;;;;;;;12.30;11.20;;;;;;;12.96;57.37;95296.38;4961827;28;20266;-61
2022/04/30 01:58:12;;;;;;;13.33;11.27;;;;;;;12.93;57.41;95296.72;4970371;28;20252;-61
2022/04/30 02:00:37;;;;;;;11.67;10.57;;;;;;;12.65;58.34;95293.47;4982831;28;20454;-61
2022/04/30 02:03:06;;;;;;;11.37;10.47;;;;;;;12.70;58.28;95292.00;4960491;28;20217;-61
2022/04/30 02:05:32;;;;;;;12.27;11.03;;;;;;;12.69;58.57;95290.34;4973942;28;20231;-61
2022/04/30 02:08:09;;;;;;;12.10;11.00;;;;;;;12.63;58.79;95287.53;4979882;28;20240;-61
2022/04/30 02:10:36;;;;;;;12.70;11.50;;;;;;;12.73;58.68;95288.25;4957126;28;20315;-62
2022/04/30 02:13:03;;;;;;;12.00;10.85;;;;;;;12.65;59.09;95285.56;4951756;28;20311;-61
2022/04/30 02:15:29;;;;;;;14.60;11.50;;;;;;;12.75;58.25;95300.28;4964133;28;20211;-61
2022/04/30 02:17:56;;;;;;;14.40;11.67;;;;;;;12.57;59.13;95296.91;4966059;28;20212;-61
2022/04/30 02:20:28;;;;;;;11.80;10.70;;;;;;;12.66;58.65;95289.84;4980414;28;20264;-61
2022/04/30 02:23:01;;;;;;;12.43;11.33;;;;;;;12.69;58.62;95294.81;4979790;28;20225;-62
2022/04/30 02:25:27;;;;;;;12.27;11.10;;;;;;;12.55;58.78;95285.66;4961024;28;20232;-62
2022/04/30 02:28:04;;;;;;;12.40;10.75;;;;;;;12.61;59.02;95287.66;4967371;28;20246;-63
2022/04/30 02:30:31;;;;;;;13.07;11.70;;;;;;;12.63;58.72;95285.72;4949379;28;20212;-62
2022/04/30 02:33:03;;;;;;;14.80;13.23;;;;;;;12.60;58.80;95286.03;4970654;28;20262;-62
2022/04/30 02:35:30;;;;;;;14.37;11.97;;;;;;;12.60;59.05;95270.19;4960870;28;20221;-62
2022/04/30 02:37:59;;;;;;;14.23;12.93;;;;;;;12.59;59.48;95273.84;4952938;28;20221;-62
2022/04/30 02:40:26;;;;;;;14.60;13.13;;;;;;;12.65;59.36;95281.09;4961347;28;20306;-62
2022/04/30 02:42:53;;;;;;;14.37;13.07;;;;;;;12.54;59.97;95286.66;4962366;28;20232;-61
2022/04/30 02:45:20;;;;;;;15.53;12.87;;;;;;;12.54;59.45;95290.13;4967041;28;20208;-61
2022/04/30 02:47:52;;;;;;;14.77;12.67;;;;;;;12.38;59.94;95287.41;4963094;28;20301;-61
2022/04/30 02:50:18;;;;;;;15.03;13.63;;;;;;;12.27;60.16;95291.13;4963001;28;20266;-61
2022/04/30 02:52:44;;;;;;;13.20;12.00;;;;;;;12.28;60.23;95287.50;4966159;28;20225;-62
2022/04/30 02:55:11;;;;;;;14.93;13.43;;;;;;;12.26;60.63;95286.81;4951627;28;20232;-62
2022/04/30 03:00:28;;;;;;;14.80;13.40;;;;;;;12.25;60.30;95282.53;4949920;28;20235;-61
2022/04/30 03:02:54;;;;;;;15.70;13.77;;;;;;;12.28;60.08;95276.13;4951505;28;20223;-62
2022/04/30 03:05:20;;;;;;;13.77;12.47;;;;;;;12.16;60.11;95275.53;4950143;28;20241;-62
2022/04/30 03:07:47;;;;;;;14.30;12.90;;;;;;;12.20;60.47;95279.53;4960509;28;20233;-62
2022/04/30 03:10:13;;;;;;;14.48;12.70;;;;;;;12.17;60.22;95271.94;4946161;28;20232;-62
2022/04/30 03:12:39;;;;;;;12.80;11.60;;;;;;;12.14;60.19;95274.91;4957815;28;20299;-62
2022/04/30 03:15:06;;;;;;;13.23;11.90;;;;;;;12.08;60.61;95272.84;4959576;28;20223;-62
2022/04/30 03:23:00;;;;;;;13.90;12.50;;;;;;;12.09;60.18;95272.72;4948155;28;20241;-62
2022/04/30 03:25:26;;;;;;;13.30;12.07;;;;;;;11.97;60.68;95271.31;4952583;28;20231;-61
2022/04/30 03:27:51;;;;;;;14.10;12.70;;;;;;;12.04;60.38;95276.81;4965635;28;20287;-61
2022/04/30 03:30:17;;;;;;;13.43;12.03;;;;;;;12.08;60.58;95280.75;4953240;28;20211;-61
2022/04/30 03:32:42;;;;;;;14.67;13.37;;;;;;;12.10;60.22;95268.25;4954878;28;20237;-62
2022/04/30 03:35:11;;;;;;;14.00;12.57;;;;;;;12.04;60.37;95285.53;4957214;28;20224;-62
2022/04/30 03:37:37;;;;;;;15.07;13.15;;;;;;;11.99;60.29;95282.53;4955985;28;20212;-62
2022/04/30 03:40:04;;;;;;;14.52;13.02;;;;;;;12.07;60.36;95289.66;4950187;28;20220;-62
2022/04/30 03:42:30;;;;;;;14.00;12.57;;;;;;;12.11;59.88;95291.84;4946506;28;20224;-62
2022/04/30 03:44:56;;;;;;;13.80;12.50;;;;;;;12.10;59.99;95297.25;4964290;28;20201;-61
2022/04/30 03:47:22;;;;;;;13.93;12.43;;;;;;;12.04;60.57;95296.06;4960887;28;20280;-61
2022/04/30 03:49:48;;;;;;;14.75;13.23;;;;;;;12.07;60.56;95301.03;4954313;28;20229;-61
2022/04/30 03:52:13;;;;;;;15.20;13.63;;;;;;;12.05;60.59;95302.16;4954449;28;20293;-61
2022/04/30 03:54:39;;;;;;;15.18;13.27;;;;;;;12.06;60.24;95298.56;4956937;28;20252;-63
2022/04/30 03:57:06;;;;;;;15.07;13.53;;;;;;;12.14;60.29;95294.16;4963351;28;20248;-61
2022/04/30 03:59:32;;;;;;;14.40;12.95;;;;;;;12.14;59.76;95299.44;4954149;28;20229;-62
2022/04/30 04:01:59;;;;;;;13.90;12.47;;;;;;;12.01;60.55;95303.47;4956897;28;20224;-62
2022/04/30 04:04:25;;;;;;;14.17;12.73;;;;;;;12.12;60.06;95301.41;4960199;28;20249;-62
2022/04/30 04:06:50;;;;;;;14.95;13.45;;;;;;;12.00;60.38;95302.66;4951047;28;20218;-62
2022/04/30 04:09:16;;;;;;;14.63;13.13;;;;;;;12.12;59.89;95303.22;4947500;28;20213;-62
2022/04/30 04:11:41;;;;;;;15.30;13.75;;;;;;;12.17;59.76;95305.41;4954612;28;20239;-62
2022/04/30 04:19:35;;;;;;;15.13;13.50;;;;;;;12.16;59.60;95304.53;4967824;28;20241;-62
2022/04/30 04:22:00;;;;;;;14.73;13.23;;;;;;;12.11;59.81;95301.56;4967451;28;20236;-62
2022/04/30 04:27:10;;;;;;;14.90;13.40;;;;;;;12.25;59.25;95308.09;4962415;28;20309;-61
2022/04/30 04:29:36;;;;;;;14.40;12.90;;;;;;;12.24;59.56;95312.53;4964160;28;20233;-62
2022/04/30 04:32:01;;;;;;;16.47;12.93;;;;;;;12.28;59.03;95313.88;4947715;28;20241;-64
2022/04/30 04:34:27;;;;;;;15.67;14.07;;;;;;;12.36;58.52;95306.00;4942384;28;20308;-62
2022/04/30 04:36:52;;;;;;;13.67;12.37;;;;;;;12.44;58.47;95296.50;4948185;28;20224;-62
2022/04/30 04:39:18;;;;;;;14.43;13.13;;;;;;;12.42;58.41;95303.72;4965082;28;20212;-62
2022/04/30 04:41:44;;;;;;;14.50;13.10;;;;;;;12.48;58.24;95306.59;4963758;28;20222;-62
2022/04/30 04:44:10;;;;;;;14.23;12.77;;;;;;;12.57;57.98;95303.00;4956148;28;20229;-62
2022/04/30 04:46:38;;;;;;;14.40;12.07;;;;;;;12.66;57.84;95300.41;4936262;28;20279;-62
2022/04/30 04:49:04;;;;;;;14.73;13.25;;;;;;;12.61;57.56;95297.41;4944544;28;20231;-61
2022/04/30 04:51:30;;;;;;;13.13;11.90;;;;;;;12.68;57.78;95304.53;4959171;28;20768;-61
2022/04/30 04:53:56;;;;;;;15.10;13.53;;;;;;;12.68;57.81;95311.63;4963562;28;20200;-61
2022/04/30 04:56:25;;;;;;;13.93;12.40;;;;;;;12.83;57.18;95310.06;4962098;28;20220;-61
2022/04/30 04:58:50;;;;;;;15.05;13.60;;;;;;;12.85;57.29;95309.88;4958186;28;20231;-62
2022/04/30 05:01:15;;;;;;;14.43;12.93;;;;;;;13.06;56.98;95312.94;4972253;28;20223;-61
2022/04/30 05:03:41;;;;;;;14.63;13.13;;;;;;;13.12;56.77;95317.56;4979388;28;20233;-62
2022/04/30 05:06:06;;;;;;;15.18;12.63;;;;;;;13.19;56.66;95313.31;4966055;28;20248;-62
2022/04/30 05:08:32;;;;;;;13.93;12.50;;;;;;;13.28;56.67;95322.09;4967378;28;20263;-61
2022/04/30 05:10:57;;;;;;;15.02;13.65;;;;;;;13.38;55.85;95314.06;4960346;28;20228;-61
2022/04/30 05:13:23;;;;;;;17.75;12.80;;;;;;;13.54;55.57;95316.72;4968057;28;20231;-61
2022/04/30 05:15:48;;;;;;;14.10;12.70;;;;;;;13.60;55.04;95317.88;4963546;28;20229;-61
2022/04/30 05:18:14;;;;;;;13.20;11.90;;;;;;;13.53;55.75;95323.00;4969613;28;20212;-61
2022/04/30 05:20:40;;;;;;;14.98;13.43;;;;;;;13.82;54.58;95324.34;4957387;28;20212;-62
2022/04/30 05:23:05;;;;;;;14.38;12.98;;;;;;;13.79;54.64;95329.97;4941270;28;20238;-61
2022/04/30 05:25:31;;;;;;;13.85;12.43;;;;;;;13.91;54.67;95326.03;4964990;28;20228;-61
2022/04/30 05:27:57;;;;;;;14.20;12.70;;;;;;;14.11;54.19;95323.84;4938824;28;20236;-61
2022/04/30 05:30:23;;;;;;;14.02;12.63;;;;;;;14.08;54.14;95327.66;4942400;28;20516;-61
2022/04/30 05:32:48;;;;;;;17.27;13.05;;;;;;;14.08;54.07;95329.47;4969937;28;20233;-61
2022/04/30 05:35:14;;;;;;;14.43;13.05;;;;;;;14.07;54.21;95330.47;4952622;28;20243;-61
2022/04/30 05:37:40;;;;;;;14.07;12.57;;;;;;;14.11;53.87;95323.84;4966402;28;20213;-60
2022/04/30 05:40:06;;;;;;;17.23;12.52;;;;;;;14.12;53.72;95321.06;4950145;28;20237;-60
2022/04/30 05:42:32;;;;;;;15.65;12.95;;;;;;;14.20;53.56;95322.88;4947219;28;20218;-60
2022/04/30 05:44:58;;;;;;;14.43;12.93;;;;;;;14.22;54.06;95328.84;4952498;28;20371;-66
2022/04/30 05:47:24;;;;;;;14.65;13.23;;;;;;;14.29;53.18;95331.63;4969008;28;20317;-65
2022/04/30 05:49:50;;;;;;;13.93;12.63;;;;;;;14.45;53.17;95331.59;4945866;28;20267;-65
2022/04/30 05:52:15;;;;;;;13.73;12.48;;;;;;;14.55;52.47;95336.75;4957885;28;20235;-64
2022/04/30 05:54:41;;;;;;;14.63;12.93;;;;;;;14.59;51.73;95331.94;4955338;28;20228;-66
2022/04/30 05:57:06;;;;;;;13.52;12.23;;;;;;;14.65;51.73;95329.47;4942939;28;20215;-66
2022/04/30 05:59:32;;;;;;;14.13;12.82;;;;;;;14.77;51.65;95333.38;4947480;28;20280;-66
2022/04/30 06:01:57;;;;;;;14.50;13.02;;;;;;;14.89;51.36;95333.00;4956741;28;20251;-66
2022/04/30 06:04:23;;;;;;;15.10;13.70;;;;;;;14.85;51.23;95337.81;4948667;28;20277;-67
2022/04/30 06:06:48;;;;;;;13.45;12.15;;;;;;;14.73;51.58;95345.31;4948745;28;20224;-66
2022/04/30 06:09:14;;;;;;;14.35;12.85;;;;;;;14.60;52.50;95333.63;4958621;28;20212;-65
2022/04/30 06:11:41;;;;;;;14.85;12.75;;;;;;;14.68;52.50;95339.69;4942653;28;20294;-65
2022/04/30 06:14:06;;;;;;;13.27;11.98;;;;;;;14.61;52.88;95345.84;4964491;28;20231;-65
2022/04/30 06:16:32;;;;;;;12.07;10.88;;;;;;;14.67;52.09;95332.75;4959495;28;20279;-65
2022/04/30 06:18:57;;;;;;;11.85;10.75;;;;;;;14.62;51.94;95336.88;4962212;28;20239;-62
2022/04/30 06:21:23;;;;;;;12.07;10.88;;;;;;;14.62;51.46;95347.47;4955152;28;20214;-63
2022/04/30 06:23:50;;;;;;;12.45;11.20;;;;;;;14.71;51.63;95338.53;4948986;28;20247;-62
2022/04/30 06:26:15;;;;;;;15.98;11.43;;;;;;;14.69;52.00;95335.22;4947170;28;20312;-61
2022/04/30 06:28:41;;;;;;;32.50;13.20;;;;;;;14.62;52.09;95337.75;4952456;28;20296;-64
2022/04/30 06:31:07;;;;;;;12.95;11.75;;;;;;;14.65;51.54;95336.53;4958895;28;20239;-60
2022/04/30 06:33:32;;;;;;;13.45;12.15;;;;;;;14.58;51.95;95341.69;4961406;28;20291;-62
2022/04/30 06:35:58;;;;;;;11.95;10.82;;;;;;;14.72;50.93;95342.81;4936989;28;20220;-64
2022/04/30 06:38:23;;;;;;;13.48;12.02;;;;;;;14.89;49.99;95344.44;4951730;28;20227;-64
2022/04/30 06:40:49;;;;;;;11.50;10.45;;;;;;;14.99;50.06;95341.59;4942338;28;20225;-68
2022/04/30 06:43:14;;;;;;;10.65;9.75;;;;;;;15.11;49.29;95336.75;4944960;28;20236;-62
2022/04/30 06:45:40;;;;;;;11.18;10.07;;;;;;;15.21;49.42;95332.91;4968162;28;20231;-62
2022/04/30 06:48:06;;;;;;;9.98;8.98;;;;;;;15.45;48.05;95325.84;4953801;28;20207;-61
2022/04/30 06:50:31;;;;;;;10.68;9.52;;;;;;;15.53;48.39;95327.59;4938182;29;20237;-65
2022/04/30 06:58:25;;;;;;;12.90;9.57;;;;;;;16.11;46.63;95328.88;4940715;28;20329;-68
2022/04/30 07:03:24;;;;;;;10.40;9.50;;;;;;;16.07;45.74;95322.31;4945094;28;20309;-66
2022/04/30 07:06:02;;;;;;;10.52;9.60;;;;;;;16.11;45.29;95318.28;4972797;28;20230;-64
2022/04/30 07:08:28;;;;;;;12.02;9.32;;;;;;;16.11;45.41;95323.56;4975012;28;20216;-68
2022/04/30 07:10:53;;;;;;;9.25;8.35;;;;;;;16.14;45.72;95309.94;4964291;28;20238;-63
2022/04/30 07:13:19;;;;;;;11.23;10.13;;;;;;;16.18;46.05;95324.53;4961791;28;20304;-63
2022/04/30 07:15:44;;;;;;;10.88;9.80;;;;;;;16.06;46.34;95320.63;4940622;28;20259;-65
2022/04/30 07:18:10;;;;;;;9.82;9.02;;;;;;;15.98;46.02;95323.34;4962148;28;20208;-64
2022/04/30 07:20:35;;;;;;;10.00;9.02;;;;;;;16.04;45.88;95322.66;4941724;28;20217;-64
2022/04/30 07:23:01;;;;;;;10.70;9.63;;;;;;;15.93;46.55;95318.59;4965007;28;20315;-62
2022/04/30 07:25:26;;;;;;;9.73;8.93;;;;;;;16.09;46.32;95326.44;4966465;28;20241;-64
2022/04/30 07:27:52;;;;;;;11.70;10.65;;;;;;;15.92;46.79;95324.88;4960754;28;20576;-61
2022/04/30 07:30:17;;;;;;;12.65;10.88;;;;;;;15.94;47.13;95316.78;4943258;28;20319;-64
2022/04/30 07:32:43;;;;;;;11.07;9.88;;;;;;;15.89;47.23;95317.28;4945799;28;20236;-62
2022/04/30 07:35:11;;;;;;;10.93;9.80;;;;;;;15.99;46.92;95320.53;4962263;28;20232;-68
2022/04/30 07:37:36;;;;;;;11.10;10.15;;;;;;;16.14;46.32;95311.78;4975535;28;20374;-66
2022/04/30 07:40:03;;;;;;;11.25;10.18;;;;;;;15.99;47.05;95309.94;4964584;28;20229;-61
2022/04/30 07:42:31;;;;;;;11.80;10.68;;;;;;;16.00;47.35;95303.59;4956625;28;20205;-62
2022/04/30 07:44:59;;;;;;;9.93;9.02;;;;;;;16.10;46.79;95304.19;4950995;28;20209;-67
2022/04/30 07:47:25;;;;;;;10.63;9.63;;;;;;;16.05;46.04;95303.91;4944243;28;20229;-60
2022/04/30 07:49:51;;;;;;;10.07;9.07;;;;;;;16.14;46.33;95301.16;4936338;28;20475;-61
2022/04/30 07:52:20;;;;;;;11.18;9.93;;;;;;;16.32;45.96;95299.03;4957471;28;20228;-60
2022/04/30 07:54:45;;;;;;;10.57;9.48;;;;;;;16.44;44.48;95300.25;4965974;28;20228;-60
2022/04/30 07:57:11;;;;;;;9.32;8.45;;;;;;;16.48;43.20;95298.88;4974019;28;20376;-60
2022/04/30 07:59:39;;;;;;;9.88;8.88;;;;;;;16.53;43.41;95303.63;4976607;28;20240;-64
2022/04/30 08:02:04;;;;;;;8.85;7.95;;;;;;;16.38;43.04;95300.13;4977450;28;20263;-64
2022/04/30 08:04:30;;;;;;;10.00;9.20;;;;;;;16.08;44.15;95297.41;4968202;28;20221;-64
2022/04/30 08:06:56;;;;;;;9.23;8.40;;;;;;;16.11;44.70;95302.34;4971814;28;20231;-64
2022/04/30 08:09:21;;;;;;;9.93;8.93;;;;;;;16.13;44.77;95299.53;4966768;28;20237;-62
2022/04/30 08:11:47;;;;;;;9.40;8.60;;;;;;;16.24;44.91;95296.44;4978720;28;20215;-63
2022/04/30 08:14:13;;;;;;;9.00;8.20;;;;;;;16.48;44.68;95298.88;4960992;28;20254;-62
2022/04/30 08:16:41;;;;;;;8.40;7.70;;;;;;;16.30;44.98;95296.56;4980908;28;20208;-63
2022/04/30 08:19:07;;;;;;;8.90;8.00;;;;;;;16.50;43.36;95296.84;4970860;28;20251;-64
2022/04/30 08:21:32;;;;;;;8.18;7.47;;;;;;;16.56;43.25;95290.00;4980148;28;20247;-63
2022/04/30 08:23:58;;;;;;;11.25;9.18;;;;;;;16.41;44.11;95292.66;4975730;28;20219;-63
2022/04/30 08:26:23;;;;;;;9.13;8.23;;;;;;;16.43;44.05;95292.44;4975720;28;20236;-60
2022/04/30 08:28:48;;;;;;;9.23;8.43;;;;;;;16.47;44.41;95296.41;4973672;28;20227;-68
2022/04/30 08:31:14;;;;;;;9.38;8.48;;;;;;;16.52;43.82;95283.41;4975366;28;20304;-67
2022/04/30 08:33:45;;;;;;;8.77;7.93;;;;;;;16.55;44.21;95280.41;4973343;28;20239;-67
2022/04/30 08:36:11;;;;;;;9.90;8.95;;;;;;;16.69;44.12;95290.19;4979403;28;20208;-67
2022/04/30 08:38:36;;;;;;;10.82;9.73;;;;;;;16.75;44.54;95273.50;4973887;28;20219;-64
2022/04/30 08:41:01;;;;;;;10.20;9.23;;;;;;;16.71;45.04;95285.53;4970029;28;20259;-64
2022/04/30 08:43:28;;;;;;;9.55;8.73;;;;;;;16.72;44.56;95289.00;4964913;28;20224;-64
2022/04/30 08:45:54;;;;;;;8.77;7.72;;;;;;;16.99;42.95;95279.56;4971261;28;20232;-69
2022/04/30 08:48:19;;;;;;;9.20;8.40;;;;;;;17.00;42.42;95281.25;4960232;28;20212;-69
2022/04/30 08:50:47;;;;;;;8.82;8.02;;;;;;;17.19;42.94;95278.00;4964893;28;20256;-69
2022/04/30 08:53:14;;;;;;;8.65;7.82;;;;;;;17.26;44.07;95277.25;4968705;28;20267;-70
2022/04/30 08:55:39;;;;;;;8.38;7.55;;;;;;;17.35;43.62;95276.16;4977275;28;20223;-62
2022/04/30 08:58:05;;;;;;;9.77;7.35;;;;;;;17.32;43.49;95272.03;4969788;28;20225;-63
2022/04/30 09:00:38;;;;;;;7.38;6.72;;;;;;;17.22;44.45;95279.47;4974315;28;20291;-63
2022/04/30 09:03:04;;;;;;;7.97;6.75;;;;;;;17.06;44.33;95274.38;4973941;28;20220;-63
2022/04/30 09:05:37;;;;;;;9.35;6.75;;;;;;;17.16;44.89;95269.56;4984547;28;20220;-59
2022/04/30 09:08:04;;;;;;;9.38;6.45;;;;;;;17.08;43.79;95264.34;4982088;28;20248;-66
2022/04/30 09:10:31;;;;;;;8.60;6.10;;;;;;;17.02;45.07;95263.25;4986477;28;20245;-67
2022/04/30 09:13:10;;;;;;;7.22;6.18;;;;;;;17.29;45.29;95264.41;4970858;28;20232;-64
2022/04/30 09:15:38;;;;;;;9.38;6.55;;;;;;;17.42;44.11;95263.72;4989482;28;20211;-65
2022/04/30 09:18:04;;;;;;;5.93;5.35;;;;;;;17.42;43.45;95269.03;4971810;28;20212;-67
2022/04/30 09:20:40;;;;;;;6.13;5.55;;;;;;;17.49;43.56;95269.13;4975091;28;20219;-62
2022/04/30 09:23:06;;;;;;;5.78;5.38;;;;;;;17.63;42.52;95261.09;4967362;28;20251;-67
2022/04/30 09:25:31;;;;;;;6.25;5.65;;;;;;;17.71;44.19;95254.81;4976902;28;20255;-66
2022/04/30 09:27:57;;;;;;;5.60;5.10;;;;;;;17.97;41.43;95256.94;4978145;28;20231;-59
2022/04/30 09:30:25;;;;;;;6.30;5.15;;;;;;;17.95;42.12;95264.28;4965697;28;20220;-59
2022/04/30 09:33:01;;;;;;;5.50;5.05;;;;;;;18.10;41.85;95256.25;4961933;28;20217;-59
2022/04/30 09:38:12;;;;;;;5.25;4.38;;;;;;;18.19;40.84;95255.06;4963381;28;20228;-59
2022/04/30 09:40:37;;;;;;;5.40;4.53;;;;;;;18.17;39.81;95253.63;4983408;28;20227;-59
2022/04/30 09:43:05;;;;;;;5.57;4.32;;;;;;;18.33;40.23;95255.97;4976078;28;20235;-61
2022/04/30 09:45:35;;;;;;;4.78;4.22;;;;;;;18.49;39.33;95253.03;4968450;28;20208;-59
2022/04/30 09:53:56;;;;;;;4.40;3.85;;;;;;;18.68;38.52;95248.88;4984850;28;20244;-60
2022/04/30 09:56:36;;;;;;;4.35;4.05;;;;;;;18.75;37.21;95234.78;4978846;28;20227;-59
2022/04/30 09:59:10;;;;;;;4.75;4.15;;;;;;;18.84;38.39;95229.06;4979858;28;20227;-60
2022/04/30 10:01:41;;;;;;;4.53;4.10;;;;;;;18.93;36.81;95224.41;4965099;28;20226;-60
2022/04/30 10:04:12;;;;;;;3.55;3.25;;;;;;;19.13;37.35;95227.16;4980814;28;20232;-60
2022/04/30 10:06:41;;;;;;;5.13;3.63;;;;;;;18.91;36.21;95221.94;4967022;28;20307;-61
2022/04/30 10:09:09;;;;;;;4.05;3.38;;;;;;;19.02;36.91;95223.22;4984922;28;20243;-59
2022/04/30 10:11:54;;;;;;;4.35;3.95;;;;;;;18.90;36.02;95217.66;4953778;28;20234;-60
2022/04/30 10:14:31;;;;;;;4.28;3.80;;;;;;;18.89;35.63;95213.31;4977901;28;20220;-59
2022/04/30 10:17:16;;;;;;;3.92;3.53;;;;;;;19.08;36.92;95216.25;4981825;28;20230;-60
2022/04/30 10:20:29;;;;;;;3.78;3.50;;;;;;;19.28;35.45;95206.50;4967200;28;20290;-60
2022/04/30 10:22:53;;;;;;;5.82;3.58;;;;;;;19.82;35.44;95200.25;4963108;28;20240;-60
2022/04/30 10:25:34;;;;;;;4.55;3.53;;;;;;;19.92;35.72;95204.38;4951830;28;20233;-60
2022/04/30 10:28:23;;;;;;;4.70;4.30;;;;;;;19.69;35.54;95196.75;4956395;28;20225;-61
2022/04/30 10:31:18;;;;;;;3.95;3.65;;;;;;;20.33;35.28;95190.78;4964436;28;20272;-60
2022/04/30 10:33:48;;;;;;;3.90;3.60;;;;;;;20.75;33.92;95196.66;4950326;28;20243;-61
2022/04/30 10:36:13;;;;;;;7.00;4.10;;;;;;;20.91;33.99;95193.53;4954759;28;20247;-60
2022/04/30 10:38:40;;;;;;;4.10;3.70;;;;;;;20.96;32.48;95189.41;4969207;28;20248;-60
2022/04/30 10:41:09;;;;;;;3.78;3.38;;;;;;;20.46;34.13;95182.75;4953380;28;20703;-59
2022/04/30 10:43:40;;;;;;;5.47;3.75;;;;;;;20.75;33.37;95180.63;4953303;28;20228;-61
2022/04/30 10:46:23;;;;;;;9.63;4.25;;;;;;;21.23;33.31;95188.25;4957496;28;20235;-60
2022/04/30 10:48:50;;;;;;;4.05;3.65;;;;;;;21.57;32.19;95189.72;4949694;28;20227;-61
2022/04/30 10:51:30;;;;;;;4.05;3.65;;;;;;;21.76;33.09;95187.94;4956632;28;20211;-59
2022/04/30 10:53:58;;;;;;;5.10;3.78;;;;;;;21.56;30.87;95192.59;4980612;28;20234;-60
2022/04/30 10:56:27;;;;;;;4.25;3.85;;;;;;;20.75;32.35;95191.31;4936054;28;20219;-59
2022/04/30 10:58:53;;;;;;;5.97;3.95;;;;;;;20.86;32.97;95190.66;4951344;28;20240;-60
2022/04/30 11:01:20;;;;;;;4.60;4.20;;;;;;;20.88;32.46;95185.13;4969219;28;20255;-60
2022/04/30 11:03:48;;;;;;;4.25;3.85;;;;;;;20.94;32.26;95186.94;4958861;28;20239;-60
2022/04/30 11:06:25;;;;;;;4.25;3.85;;;;;;;20.89;33.22;95181.41;4952195;28;20215;-60
2022/04/30 11:09:05;;;;;;;5.90;3.70;;;;;;;20.56;32.93;95165.50;4975888;28;20255;-60
2022/04/30 11:11:31;;;;;;;5.32;3.35;;;;;;;20.74;33.17;95181.66;4970659;28;20224;-59
2022/04/30 11:14:05;;;;;;;4.38;3.60;;;;;;;21.58;31.35;95180.66;4969211;28;20332;-60
2022/04/30 11:16:41;;;;;;;4.07;3.67;;;;;;;22.14;30.37;95188.88;4968000;28;20222;-60
2022/04/30 11:19:10;;;;;;;4.72;4.00;;;;;;;22.32;30.38;95188.97;4985317;28;20227;-60
2022/04/30 11:21:38;;;;;;;9.80;4.82;;;;;;;22.37;29.40;95183.75;4974090;28;20216;-60
2022/04/30 11:24:05;;;;;;;4.43;4.03;;;;;;;21.49;30.30;95173.94;4980805;28;20228;-59
2022/04/30 11:26:40;;;;;;;4.28;3.88;;;;;;;21.58;31.75;95175.31;4971709;28;20322;-60
2022/04/30 11:29:13;;;;;;;3.92;3.53;;;;;;;21.70;30.72;95172.75;4970771;28;20229;-59
2022/04/30 11:31:41;;;;;;;4.00;3.60;;;;;;;21.55;32.02;95175.75;4983707;28;20220;-59
2022/04/30 11:34:11;;;;;;;4.25;3.70;;;;;;;22.03;30.24;95179.72;4978925;28;20231;-59
2022/04/30 11:36:44;;;;;;;4.30;3.35;;;;;;;21.87;29.52;95172.22;4977617;28;20201;-60
2022/04/30 11:39:10;;;;;;;3.05;2.75;;;;;;;21.89;29.46;95176.31;4968592;28;20209;-60
2022/04/30 11:41:44;;;;;;;7.80;3.42;;;;;;;21.99;30.42;95173.94;4971194;28;20269;-62
2022/04/30 11:44:14;;;;;;;4.25;3.33;;;;;;;22.00;29.73;95172.94;4977838;28;20222;-60
2022/04/30 11:46:41;;;;;;;4.25;2.80;;;;;;;22.20;29.75;95180.00;4962936;28;20248;-60
2022/04/30 11:49:10;;;;;;;4.28;3.40;;;;;;;21.98;28.96;95166.97;4978039;28;20259;-59
2022/04/30 11:51:36;;;;;;;5.13;3.28;;;;;;;21.54;29.94;95163.41;4969806;28;20211;-59
2022/04/30 11:54:03;;;;;;;3.55;3.25;;;;;;;21.50;30.10;95166.72;4969199;28;20227;-60
2022/04/30 11:56:30;;;;;;;3.47;3.00;;;;;;;21.53;30.81;95167.09;4978372;28;20226;-60
2022/04/30 11:58:56;;;;;;;4.47;3.08;;;;;;;21.52;31.04;95160.13;4980781;28;20311;-59
2022/04/30 12:01:24;;;;;;;4.22;2.95;;;;;;;21.44;31.31;95162.22;4981787;28;20288;-60
2022/04/30 12:04:00;;;;;;;4.35;3.10;;;;;;;21.61;31.94;95163.34;4974828;28;20251;-60